Fayetteville, Tennessee
Current Conditions -  °F | °C
As of 11:15 AM on Saturday 25 Oct 2014 (Local Time) from KFYM Reporting Station
Clear Clear  
Wind Chill: 66°   Ceiling: Unl
Heat Index: 66°   Visibility: 10mi
Dew Point: 52°   Wind: 7mph
Humidity: 60%   Direction: 220°SW
Pressure: 30.11"   Gusts: 49mph
Location:  35.15°N, 86.57°W
Report Text: KFYM 251615Z AUTO 22006G43KT 10SM CLR 19/11 A3011 RMK
Loading
Personal Weather Stations






























Interactive Weather Map
Tropical Storm Tracking
New forecast layout! Learn more

10-Day Weather Forecast

Advertisements
Track Severe Weather on mobile